地図

経路データ

SID SEASON NUMBER BASIN SUBBASIN NAME ISO_TIME NATURE LAT LON WMO_WIND WMO_PRES WMO_AGENCY TRACK_TYPE DIST2LAND LANDFALL IFLAG USA_AGENCY USA_ATCF_ID USA_LAT USA_LON USA_RECORD USA_STATUS USA_WIND USA_PRES USA_SSHS USA_R34_NE USA_R34_SE USA_R34_SW USA_R34_NW USA_R50_NE USA_R50_SE USA_R50_SW USA_R50_NW USA_R64_NE USA_R64_SE USA_R64_SW USA_R64_NW USA_POCI USA_ROCI USA_RMW USA_EYE TOKYO_LAT TOKYO_LON TOKYO_GRADE TOKYO_WIND TOKYO_PRES TOKYO_R50_DIR TOKYO_R50_LONG TOKYO_R50_SHORT TOKYO_R30_DIR TOKYO_R30_LONG TOKYO_R30_SHORT TOKYO_LAND CMA_LAT CMA_LON CMA_CAT CMA_WIND CMA_PRES HKO_LAT HKO_LON HKO_CAT HKO_WIND HKO_PRES NEWDELHI_LAT NEWDELHI_LON NEWDELHI_GRADE NEWDELHI_WIND NEWDELHI_PRES NEWDELHI_CI NEWDELHI_DP NEWDELHI_POCI REUNION_LAT REUNION_LON REUNION_TYPE REUNION_WIND REUNION_PRES REUNION_TNUM REUNION_CI REUNION_RMW REUNION_R34_NE REUNION_R34_SE REUNION_R34_SW REUNION_R34_NW REUNION_R50_NE REUNION_R50_SE REUNION_R50_SW REUNION_R50_NW REUNION_R64_NE REUNION_R64_SE REUNION_R64_SW REUNION_R64_NW BOM_LAT BOM_LON BOM_TYPE BOM_WIND BOM_PRES BOM_TNUM BOM_CI BOM_RMW BOM_R34_NE BOM_R34_SE BOM_R34_SW BOM_R34_NW BOM_R50_NE BOM_R50_SE BOM_R50_SW BOM_R50_NW BOM_R64_NE BOM_R64_SE BOM_R64_SW BOM_R64_NW BOM_ROCI BOM_POCI BOM_EYE BOM_POS_METHOD BOM_PRES_METHOD NADI_LAT NADI_LON NADI_CAT NADI_WIND NADI_PRES WELLINGTON_LAT WELLINGTON_LON WELLINGTON_WIND WELLINGTON_PRES DS824_LAT DS824_LON DS824_STAGE DS824_WIND DS824_PRES TD9636_LAT TD9636_LON TD9636_STAGE TD9636_WIND TD9636_PRES TD9635_LAT TD9635_LON TD9635_WIND TD9635_PRES TD9635_ROCI NEUMANN_LAT NEUMANN_LON NEUMANN_CLASS NEUMANN_WIND NEUMANN_PRES MLC_LAT MLC_LON MLC_CLASS MLC_WIND MLC_PRES USA_GUST BOM_GUST BOM_GUST_PER REUNION_GUST REUNION_GUST_PER USA_SEAHGT USA_SEARAD_NE USA_SEARAD_SE USA_SEARAD_SW USA_SEARAD_NW STORM_SPEED STORM_DIR
1891197N14129 1891 14 WP MM NOT_NAMED 1891-07-15 16:00:00 NR 14.0000 129.000 main 429 382 __________O___ -1 14.0000 129.000 4 26 300
1891197N14129 1891 14 WP MM NOT_NAMED 1891-07-15 18:00:00 NR 14.4420 128.224 main 382 320 __________P___ -1 14.4420 128.224 4 26 300
1891197N14129 1891 14 WP MM NOT_NAMED 1891-07-15 21:00:00 NR 15.0806 127.097 main 320 263 __________P___ -1 15.0806 127.097 4 24 300
1891197N14129 1891 14 WP MM NOT_NAMED 1891-07-16 00:00:00 NR 15.6626 126.075 main 271 253 __________P___ -1 15.6626 126.075 4 21 301
1891197N14129 1891 14 WP MM NOT_NAMED 1891-07-16 03:00:00 NR 16.1586 125.230 main 264 260 __________P___ -1 16.1586 125.230 4 18 302
1891197N14129 1891 14 WP MM NOT_NAMED 1891-07-16 04:00:00 NR 16.3000 125.000 main 268 228 __________O___ -1 16.3000 125.000 4 14 304
1891197N14129 1891 14 WP MM NOT_NAMED 1891-07-16 06:00:00 NR 16.5443 124.624 main 228 181 __________P___ -1 16.5443 124.624 4 11 306
1891197N14129 1891 14 WP MM NOT_NAMED 1891-07-16 09:00:00 NR 16.8370 124.233 main 181 159 __________P___ -1 16.8370 124.233 4 8 311
1891197N14129 1891 14 WP MM NOT_NAMED 1891-07-16 12:00:00 NR 17.0799 123.976 main 159 139 __________P___ -1 17.0799 123.976 4 7 317
1891197N14129 1891 14 WP MM NOT_NAMED 1891-07-16 15:00:00 NR 17.3157 123.771 main 142 131 __________P___ -1 17.3157 123.771 4 6 321
1891197N14129 1891 14 WP MM NOT_NAMED 1891-07-16 16:00:00 NR 17.4000 123.700 main 135 121 __________O___ -1 17.4000 123.700 4 8 320
1891197N14129 1891 14 WP MM NOT_NAMED 1891-07-16 18:00:00 NR 17.6022 123.515 main 121 105 __________P___ -1 17.6022 123.515 4 8 320
1891197N14129 1891 14 WP MM NOT_NAMED 1891-07-16 21:00:00 NR 17.9183 123.244 main 105 74 __________P___ -1 17.9183 123.244 4 8 321
1891197N14129 1891 14 WP MM NOT_NAMED 1891-07-17 00:00:00 NR 18.2470 122.957 main 74 38 __________P___ -1 18.2470 122.957 4 9 319
1891197N14129 1891 14 WP MM NOT_NAMED 1891-07-17 03:00:00 NR 18.5855 122.625 main 38 38 __________P___ -1 18.5855 122.625 4 9 316
1891197N14129 1891 14 WP MM NOT_NAMED 1891-07-17 04:00:00 NR 18.7000 122.500 main 39 39 __________O___ -1 18.7000 122.500 4 10 313
1891197N14129 1891 14 WP MM NOT_NAMED 1891-07-17 06:00:00 NR 18.9381 122.220 main 55 67 __________P___ -1 18.9381 122.220 4 11 310
1891197N14129 1891 14 WP MM NOT_NAMED 1891-07-17 09:00:00 NR 19.3018 121.751 main 98 94 __________P___ -1 19.3018 121.751 4 12 308
1891197N14129 1891 14 WP MM NOT_NAMED 1891-07-17 12:00:00 NR 19.6593 121.234 main 127 124 __________P___ -1 19.6593 121.234 4 12 305
1891197N14129 1891 14 WP MM NOT_NAMED 1891-07-17 15:00:00 NR 19.9954 120.687 main 156 156 __________P___ -1 19.9954 120.687 4 12 303
1891197N14129 1891 14 WP MM NOT_NAMED 1891-07-17 16:00:00 NR 20.1000 120.500 main 170 170 __________O___ -1 20.1000 120.500 4 12 300
1891197N14129 1891 14 WP MM NOT_NAMED 1891-07-17 18:00:00 NR 20.2918 120.141 main 189 182 __________P___ -1 20.2918 120.141 4 12 298
1891197N14129 1891 14 WP MM NOT_NAMED 1891-07-17 21:00:00 NR 20.5544 119.584 main 184 184 __________P___ -1 20.5544 119.584 4 12 295
1891197N14129 1891 14 WP MM NOT_NAMED 1891-07-18 00:00:00 NR 20.7955 119.006 main 214 214 __________P___ -1 20.7955 119.006 4 12 293
1891197N14129 1891 14 WP MM NOT_NAMED 1891-07-18 03:00:00 NR 21.0246 118.405 main 258 258 __________P___ -1 21.0246 118.405 4 12 292
1891197N14129 1891 14 WP MM NOT_NAMED 1891-07-18 04:00:00 NR 21.1000 118.200 main 266 223 __________O___ -1 21.1000 118.200 4 13 292
1891197N14129 1891 14 WP MM NOT_NAMED 1891-07-18 06:00:00 NR 21.2581 117.781 main 223 168 __________P___ -1 21.2581 117.781 4 13 291
1891197N14129 1891 14 WP MM NOT_NAMED 1891-07-18 09:00:00 NR 21.4893 117.133 main 168 129 __________P___ -1 21.4893 117.133 4 13 291
1891197N14129 1891 14 WP MM NOT_NAMED 1891-07-18 12:00:00 NR 21.7130 116.475 main 129 89 __________P___ -1 21.7130 116.475 4 13 290
1891197N14129 1891 14 WP MM NOT_NAMED 1891-07-18 15:00:00 NR 21.9294 115.817 main 89 78 __________P___ -1 21.9294 115.817 4 13 289
1891197N14129 1891 14 WP MM NOT_NAMED 1891-07-18 16:00:00 NR 22.0000 115.600 main 78 54 __________O___ -1 22.0000 115.600 4 12 290
1891197N14129 1891 14 WP MM NOT_NAMED 1891-07-18 18:00:00 NR 22.1404 115.198 main 54 22 __________P___ -1 22.1404 115.198 4 12 290
1891197N14129 1891 14 WP MM NOT_NAMED 1891-07-18 21:00:00 NR 22.3454 114.602 main 22 0 __________P___ -1 22.3454 114.602 4 12 290
1891197N14129 1891 14 WP MM NOT_NAMED 1891-07-19 00:00:00 NR 22.5442 113.990 main 0 0 __________P___ -1 22.5442 113.990 4 12 288
1891197N14129 1891 14 WP MM NOT_NAMED 1891-07-19 03:00:00 NR 22.7371 113.334 main 0 0 __________P___ -1 22.7371 113.334 4 13 287
1891197N14129 1891 14 WP MM NOT_NAMED 1891-07-19 04:00:00 NR 22.8000 113.100 main 0 0 __________O___ -1 22.8000 113.100 4 14 286
1891197N14129 1891 14 WP MM NOT_NAMED 1891-07-19 06:00:00 NR 22.9301 112.601 main 0 0 __________P___ -1 22.9301 112.601 4 15 285
1891197N14129 1891 14 WP MM NOT_NAMED 1891-07-19 09:00:00 NR 23.1191 111.802 main 0 0 __________P___ -1 23.1191 111.802 4 16 284
1891197N14129 1891 14 WP MM NOT_NAMED 1891-07-19 12:00:00 NR 23.2952 110.959 main 0 0 __________P___ -1 23.2952 110.959 4 16 282
1891197N14129 1891 14 WP MM NOT_NAMED 1891-07-19 15:00:00 NR 23.4526 110.092 main 0 0 __________P___ -1 23.4526 110.092 4 16 281
1891197N14129 1891 14 WP MM NOT_NAMED 1891-07-19 16:00:00 NR 23.5000 109.800 main 0 0 __________O___ -1 23.5000 109.800 4 16 279
1891197N14129 1891 14 WP MM NOT_NAMED 1891-07-19 18:00:00 NR 23.5864 109.217 main 0 0 __________P___ -1 23.5864 109.217 4 16 278
1891197N14129 1891 14 WP MM NOT_NAMED 1891-07-19 21:00:00 NR 23.6978 108.342 main 0 0 __________P___ -1 23.6978 108.342 4 16 277
1891197N14129 1891 14 WP MM NOT_NAMED 1891-07-20 00:00:00 NR 23.7920 107.467 main 0 0 __________P___ -1 23.7920 107.467 4 16 276
1891197N14129 1891 14 WP MM NOT_NAMED 1891-07-20 03:00:00 NR 23.8743 106.592 main 0 0 __________P___ -1 23.8743 106.592 4 16 276
1891197N14129 1891 14 WP MM NOT_NAMED 1891-07-20 04:00:00 NR 23.9000 106.300 main 0 __________O___ -1 23.9000 106.300 4 16 275

デジタル台風データ・検索

IBTrACS Databaseについて

本データベースは、米国NOAAが公開する1842年以降の世界の熱帯低気圧のベストトラックデータアーカイブInternational Best Track Archive for Climate Stewardship (IBTrACS)を、ウェブで閲覧しやすい形式に変換したものです。

最終更新日:2021-12-01